createdAt,value
2022-12-18T00:01:22.251Z,15.80
2022-12-18T00:03:56.236Z,11.20
2022-12-18T00:06:31.056Z,8.23
2022-12-18T00:09:04.467Z,8.97
2022-12-18T00:11:37.453Z,11.33
2022-12-18T00:14:11.051Z,13.67
2022-12-18T00:16:47.531Z,9.00
2022-12-18T00:19:20.511Z,7.87
2022-12-18T00:21:53.437Z,8.83
2022-12-18T00:24:27.357Z,11.33
2022-12-18T00:27:00.283Z,9.97
2022-12-18T00:29:33.245Z,11.13
2022-12-18T00:32:06.219Z,9.80
2022-12-18T00:34:39.238Z,8.10
2022-12-18T00:37:15.615Z,14.53
2022-12-18T00:39:52.808Z,8.00
2022-12-18T00:43:04.969Z,9.60
2022-12-18T00:45:38.074Z,10.97
2022-12-18T00:48:11.062Z,20.93
2022-12-18T00:50:44.152Z,13.27
2022-12-18T00:53:17.268Z,14.43
2022-12-18T00:55:50.430Z,14.40
2022-12-18T00:58:23.414Z,15.83
2022-12-18T01:00:56.429Z,14.90
2022-12-18T01:03:29.396Z,9.87
2022-12-18T01:06:07.474Z,13.50
2022-12-18T01:08:40.851Z,9.97
2022-12-18T01:11:18.319Z,12.63
2022-12-18T01:13:51.420Z,11.50
2022-12-18T01:16:24.798Z,9.60
2022-12-18T01:18:57.980Z,6.97
2022-12-18T01:21:33.957Z,7.77
2022-12-18T01:24:13.274Z,9.40
2022-12-18T01:26:46.208Z,8.03
2022-12-18T01:29:21.111Z,8.00
2022-12-18T01:31:56.438Z,13.77
2022-12-18T01:34:29.499Z,11.97
2022-12-18T01:37:04.303Z,8.70
2022-12-18T01:39:37.303Z,8.00
2022-12-18T01:42:12.606Z,10.50
2022-12-18T01:44:57.597Z,15.10
2022-12-18T01:47:34.008Z,11.47
2022-12-18T01:50:09.180Z,7.13
2022-12-18T01:52:54.408Z,19.17
2022-12-18T01:55:29.614Z,7.67
2022-12-18T01:58:02.924Z,11.20
2022-12-18T02:00:36.321Z,8.10
2022-12-18T02:03:09.611Z,8.00
2022-12-18T02:05:47.860Z,7.70
2022-12-18T02:08:42.746Z,9.07
2022-12-18T02:11:21.584Z,8.37
2022-12-18T02:14:03.340Z,7.40
2022-12-18T02:16:36.587Z,14.87
2022-12-18T02:19:30.043Z,8.60
2022-12-18T02:22:26.535Z,10.53
2022-12-18T02:25:18.430Z,15.20
2022-12-18T02:27:52.634Z,8.43
2022-12-18T02:30:28.613Z,5.77
2022-12-18T02:33:02.768Z,10.33
2022-12-18T02:35:37.655Z,9.50
2022-12-18T02:38:11.044Z,11.20
2022-12-18T02:40:45.818Z,10.43
2022-12-18T02:43:20.916Z,8.93
2022-12-18T02:45:55.901Z,11.07
2022-12-18T02:48:34.283Z,4.87
2022-12-18T02:51:17.660Z,6.50
2022-12-18T02:53:58.016Z,8.93
2022-12-18T02:56:34.328Z,7.10
2022-12-18T02:59:11.428Z,5.73
2022-12-18T03:01:57.761Z,8.17
2022-12-18T03:04:34.261Z,9.93
2022-12-18T03:07:12.257Z,7.00
2022-12-18T03:09:48.282Z,8.57
2022-12-18T03:12:37.003Z,4.60
2022-12-18T03:15:17.489Z,15.70
2022-12-18T03:17:54.981Z,11.90
2022-12-18T03:20:33.049Z,5.37
2022-12-18T03:23:09.293Z,10.20
2022-12-18T03:25:43.690Z,9.60
2022-12-18T03:28:18.394Z,7.70
2022-12-18T03:30:55.290Z,4.53
2022-12-18T03:33:34.266Z,11.30
2022-12-18T03:36:07.316Z,6.10
2022-12-18T03:38:40.635Z,6.57
2022-12-18T03:41:30.184Z,7.70
2022-12-18T03:44:39.219Z,10.17
2022-12-18T03:47:21.089Z,6.87
2022-12-18T03:50:13.172Z,6.63
2022-12-18T03:52:51.564Z,7.70
2022-12-18T03:55:26.643Z,9.93
2022-12-18T03:58:06.166Z,5.90
2022-12-18T04:00:51.646Z,4.67
2022-12-18T04:03:26.757Z,8.40
2022-12-18T04:06:13.325Z,3.90
2022-12-18T04:08:48.250Z,4.70
2022-12-18T04:11:24.525Z,7.20
2022-12-18T04:13:58.528Z,8.17
2022-12-18T04:16:31.547Z,4.77
2022-12-18T04:19:07.978Z,6.57
2022-12-18T04:21:45.689Z,8.60
2022-12-18T04:24:20.224Z,8.10
2022-12-18T04:27:03.956Z,7.30
2022-12-18T04:29:40.610Z,5.20
2022-12-18T04:32:13.572Z,7.53
2022-12-18T04:34:49.160Z,5.03
2022-12-18T04:37:22.384Z,6.10
2022-12-18T04:39:56.692Z,10.27
2022-12-18T04:42:37.714Z,7.43
2022-12-18T04:45:10.860Z,6.10
2022-12-18T04:47:43.874Z,4.70
2022-12-18T04:50:16.842Z,8.57
2022-12-18T04:52:52.067Z,4.53
2022-12-18T04:55:27.782Z,7.97
2022-12-18T04:58:00.765Z,5.57
2022-12-18T05:00:33.713Z,6.53
2022-12-18T05:03:06.723Z,3.70
2022-12-18T05:05:39.670Z,5.47
2022-12-18T05:08:12.885Z,3.47
2022-12-18T05:10:45.865Z,7.87
2022-12-18T05:13:18.925Z,4.40
2022-12-18T05:15:55.127Z,11.17
2022-12-18T05:18:28.527Z,3.70
2022-12-18T05:21:01.670Z,3.90
2022-12-18T05:23:36.143Z,9.17
2022-12-18T05:26:17.023Z,6.67
2022-12-18T05:28:50.053Z,4.50
2022-12-18T05:31:23.071Z,4.13
2022-12-18T05:33:56.082Z,7.20
2022-12-18T05:36:29.127Z,8.47
2022-12-18T05:39:02.103Z,6.37
2022-12-18T05:41:35.219Z,12.27
2022-12-18T05:44:08.135Z,7.93
2022-12-18T05:46:44.343Z,10.13
2022-12-18T05:49:17.335Z,12.93
2022-12-18T05:51:50.787Z,9.53
2022-12-18T05:54:23.813Z,5.90
2022-12-18T05:56:56.831Z,8.63
2022-12-18T05:59:29.793Z,9.03
2022-12-18T06:02:02.871Z,9.40
2022-12-18T06:04:35.915Z,9.77
2022-12-18T06:07:08.872Z,8.00
2022-12-18T06:09:42.143Z,14.17
2022-12-18T06:12:15.133Z,6.50
2022-12-18T06:14:48.066Z,5.87
2022-12-18T06:17:21.134Z,9.20
2022-12-18T06:19:54.123Z,9.57
2022-12-18T06:22:27.093Z,6.40
2022-12-18T06:25:00.378Z,18.40
2022-12-18T06:27:34.479Z,7.37
2022-12-18T06:30:07.917Z,13.23
2022-12-18T06:32:40.840Z,13.40
2022-12-18T06:35:13.771Z,11.17
2022-12-18T06:37:46.687Z,11.83
2022-12-18T06:40:19.743Z,8.10
2022-12-18T06:42:52.650Z,12.33
2022-12-18T06:45:26.155Z,10.17
2022-12-18T06:47:59.160Z,9.13
2022-12-18T06:50:32.260Z,12.80
2022-12-18T06:53:05.298Z,7.47
2022-12-18T06:55:40.119Z,7.97
2022-12-18T06:58:14.523Z,8.23
2022-12-18T07:00:47.504Z,7.90
2022-12-18T07:03:20.592Z,7.53
2022-12-18T07:05:53.554Z,11.13
2022-12-18T07:08:26.515Z,14.70
2022-12-18T07:10:59.482Z,23.75
2022-12-18T07:13:32.775Z,13.03
2022-12-18T07:16:11.244Z,20.97
2022-12-18T07:18:49.139Z,12.97
2022-12-18T07:21:22.728Z,13.90
2022-12-18T07:23:55.772Z,7.93
2022-12-18T07:26:28.713Z,11.73
2022-12-18T07:29:01.700Z,13.30
2022-12-18T07:31:34.664Z,14.80
2022-12-18T07:34:11.220Z,8.70
2022-12-18T07:36:44.598Z,19.58
2022-12-18T07:39:17.603Z,13.20
2022-12-18T07:42:10.494Z,6.27
2022-12-18T07:44:47.175Z,12.57
2022-12-18T07:47:20.327Z,8.50
2022-12-18T07:49:53.532Z,14.43
2022-12-18T07:52:26.547Z,9.97
2022-12-18T07:54:59.513Z,10.53
2022-12-18T07:58:01.535Z,11.67
2022-12-18T08:00:25.391Z,7.37
2022-12-18T08:02:58.681Z,10.73
2022-12-18T08:05:31.749Z,15.00
2022-12-18T08:08:05.876Z,7.53
2022-12-18T08:10:40.000Z,13.33
2022-12-18T08:13:12.930Z,14.10
2022-12-18T08:15:45.861Z,14.23
2022-12-18T08:18:18.766Z,7.40
2022-12-18T08:20:51.732Z,10.27
2022-12-18T08:23:39.287Z,12.47
2022-12-18T08:26:15.272Z,12.40
2022-12-18T08:28:48.568Z,8.27
2022-12-18T08:31:22.770Z,14.77
2022-12-18T08:33:57.563Z,14.47
2022-12-18T08:36:30.538Z,8.87
2022-12-18T08:39:03.774Z,17.67
2022-12-18T08:41:36.748Z,12.27
2022-12-18T08:44:28.477Z,9.27
2022-12-18T08:47:01.429Z,13.50
2022-12-18T08:49:35.042Z,13.50
2022-12-18T08:52:08.351Z,10.77
2022-12-18T08:54:41.414Z,12.23
2022-12-18T08:57:14.375Z,6.60
2022-12-18T08:59:47.360Z,10.70
2022-12-18T09:02:20.597Z,13.03
2022-12-18T09:04:57.286Z,15.27
2022-12-18T09:07:30.807Z,8.97
2022-12-18T09:10:03.885Z,15.90
2022-12-18T09:12:36.822Z,10.07
2022-12-18T09:15:09.956Z,11.43
2022-12-18T09:17:42.884Z,7.23
2022-12-18T09:20:15.864Z,14.40
2022-12-18T09:22:49.548Z,19.83
2022-12-18T09:25:23.051Z,8.30
2022-12-18T09:27:56.508Z,10.50
2022-12-18T09:30:29.638Z,14.77
2022-12-18T09:33:02.630Z,16.60
2022-12-18T09:35:42.382Z,14.37
2022-12-18T09:38:20.748Z,14.73
2022-12-18T09:40:55.347Z,11.50
2022-12-18T09:43:30.868Z,9.23
2022-12-18T09:46:06.803Z,12.23
2022-12-18T09:48:42.076Z,11.50
2022-12-18T09:51:20.545Z,10.40
2022-12-18T09:54:07.787Z,13.13
2022-12-18T09:56:42.407Z,11.47
2022-12-18T09:59:26.761Z,10.60
2022-12-18T10:01:59.790Z,17.63
2022-12-18T10:04:33.732Z,17.97
2022-12-18T10:07:14.842Z,17.33
2022-12-18T10:10:02.975Z,22.67
2022-12-18T10:12:44.323Z,25.37
2022-12-18T10:15:25.740Z,12.70
2022-12-18T10:18:01.719Z,8.20
2022-12-18T10:20:38.958Z,9.80
2022-12-18T10:23:35.140Z,8.43
2022-12-18T10:26:09.134Z,10.93
2022-12-18T10:28:43.417Z,5.87
2022-12-18T10:31:24.292Z,13.27
2022-12-18T10:33:57.847Z,16.83
2022-12-18T10:36:30.840Z,14.27
2022-12-18T10:39:36.264Z,9.83
2022-12-18T10:42:17.534Z,13.87
2022-12-18T10:45:02.930Z,18.53
2022-12-18T10:47:36.191Z,15.57
2022-12-18T10:50:20.290Z,11.63
2022-12-18T10:52:57.383Z,18.63
2022-12-18T10:55:35.039Z,16.00
2022-12-18T10:58:28.220Z,15.60
2022-12-18T11:01:07.274Z,10.90
2022-12-18T11:03:47.668Z,20.30
2022-12-18T11:06:25.447Z,18.57
2022-12-18T11:09:06.567Z,11.90
2022-12-18T11:11:42.616Z,14.30
2022-12-18T11:14:19.225Z,18.13
2022-12-18T11:19:46.690Z,16.17
2022-12-18T11:22:25.231Z,17.73
2022-12-18T11:27:55.020Z,17.60
2022-12-18T11:30:35.537Z,17.07
2022-12-18T11:33:17.827Z,34.67
2022-12-18T11:35:53.570Z,21.07
2022-12-18T11:38:30.190Z,16.40
2022-12-18T11:41:12.567Z,20.03
2022-12-18T11:43:59.007Z,19.57
2022-12-18T11:46:37.820Z,13.93
2022-12-18T11:49:27.104Z,13.67
2022-12-18T11:52:05.500Z,17.80
2022-12-18T11:54:38.873Z,13.73
2022-12-18T11:57:11.780Z,18.47
2022-12-18T11:59:57.626Z,18.20
2022-12-18T12:02:44.422Z,19.33
2022-12-18T12:05:35.980Z,18.03
2022-12-18T12:08:14.935Z,22.40
2022-12-18T12:10:55.027Z,16.90
2022-12-18T12:13:52.269Z,23.50
2022-12-18T12:16:39.226Z,14.03
2022-12-18T12:19:23.728Z,18.37
2022-12-18T12:22:04.714Z,21.23
2022-12-18T12:24:56.405Z,20.43
2022-12-18T12:27:47.497Z,11.40
2022-12-18T12:30:22.772Z,21.17
2022-12-18T12:33:04.430Z,21.97
2022-12-18T12:35:37.332Z,22.33
2022-12-18T12:38:14.376Z,16.57
2022-12-18T12:40:56.618Z,20.27
2022-12-18T12:43:49.468Z,21.33
2022-12-18T12:46:25.127Z,14.83
2022-12-18T12:49:00.195Z,17.60
2022-12-18T12:51:37.291Z,19.30
2022-12-18T12:54:17.168Z,22.73
2022-12-18T12:56:57.099Z,8.33
2022-12-18T12:59:46.860Z,16.03
2022-12-18T13:02:24.251Z,18.60
2022-12-18T13:05:02.027Z,15.70
2022-12-18T13:07:41.450Z,17.13
2022-12-18T13:10:27.181Z,14.43
2022-12-18T13:13:13.553Z,24.93
2022-12-18T13:15:51.507Z,23.23
2022-12-18T13:18:26.188Z,13.90
2022-12-18T13:21:03.039Z,19.63
2022-12-18T13:23:41.412Z,19.70
2022-12-18T13:26:15.447Z,26.53
2022-12-18T13:28:48.430Z,25.90
2022-12-18T13:31:40.593Z,11.83
2022-12-18T13:34:27.594Z,16.20
2022-12-18T13:37:21.714Z,12.60
2022-12-18T13:39:54.693Z,19.03
2022-12-18T13:42:49.493Z,15.40
2022-12-18T13:45:39.475Z,10.63
2022-12-18T13:48:33.084Z,26.67
2022-12-18T13:51:08.329Z,18.73
2022-12-18T13:53:45.104Z,18.30
2022-12-18T13:56:25.516Z,20.60
2022-12-18T13:59:07.242Z,27.33
2022-12-18T14:01:47.860Z,17.87
2022-12-18T14:04:32.280Z,42.13
2022-12-18T14:07:07.165Z,21.43
2022-12-18T14:09:43.483Z,22.00
2022-12-18T14:12:45.519Z,24.97
2022-12-18T14:15:27.881Z,22.43
2022-12-18T14:18:16.198Z,25.13
2022-12-18T14:20:52.849Z,18.80
2022-12-18T14:23:43.206Z,20.03
2022-12-18T14:26:22.000Z,16.17
2022-12-18T14:28:56.368Z,21.97
2022-12-18T14:31:30.691Z,19.03
2022-12-18T14:34:03.661Z,27.37
2022-12-18T14:36:36.606Z,22.93
2022-12-18T14:39:18.082Z,23.02
2022-12-18T14:41:51.206Z,24.33
2022-12-18T14:44:24.137Z,20.17
2022-12-18T14:46:57.414Z,23.57
2022-12-18T14:49:37.663Z,16.37
2022-12-18T14:52:22.757Z,28.70
2022-12-18T14:54:56.158Z,23.37
2022-12-18T14:57:36.096Z,24.67
2022-12-18T15:00:16.366Z,24.70
2022-12-18T15:02:54.124Z,31.00
2022-12-18T15:05:30.897Z,23.43
2022-12-18T15:08:04.198Z,23.87
2022-12-18T15:10:48.025Z,19.47
2022-12-18T15:13:25.265Z,23.47
2022-12-18T15:15:59.988Z,23.43
2022-12-18T15:18:36.571Z,21.70
2022-12-18T15:21:10.919Z,16.93
2022-12-18T15:23:52.181Z,20.43
2022-12-18T15:26:25.165Z,27.30
2022-12-18T15:29:03.852Z,18.03
2022-12-18T15:31:36.824Z,17.57
2022-12-18T15:34:09.732Z,22.17
2022-12-18T15:36:42.813Z,23.67
2022-12-18T15:39:15.916Z,22.67
2022-12-18T15:42:07.629Z,21.47
2022-12-18T15:44:40.639Z,19.40
2022-12-18T15:47:14.286Z,25.50
2022-12-18T15:49:47.293Z,22.37
2022-12-18T15:52:26.733Z,23.27
2022-12-18T15:55:18.392Z,20.13
2022-12-18T15:57:51.316Z,18.17
2022-12-18T16:00:24.346Z,22.73
2022-12-18T16:02:57.552Z,25.37
2022-12-18T16:05:31.250Z,25.13
2022-12-18T16:08:04.254Z,41.00
2022-12-18T16:10:37.238Z,30.70
2022-12-18T16:13:14.304Z,28.30
2022-12-18T16:15:47.407Z,21.17
2022-12-18T16:18:20.393Z,25.27
2022-12-18T16:20:53.362Z,20.23
2022-12-18T16:23:27.963Z,37.97
2022-12-18T16:26:00.958Z,30.73
2022-12-18T16:28:33.891Z,21.83
2022-12-18T16:31:06.915Z,25.53
2022-12-18T16:33:40.429Z,22.03
2022-12-18T16:36:14.590Z,20.83
2022-12-18T16:38:48.969Z,27.67
2022-12-18T16:41:31.886Z,23.03
2022-12-18T16:44:05.112Z,18.47
2022-12-18T16:46:38.554Z,21.87
2022-12-18T16:49:11.760Z,16.10
2022-12-18T16:51:44.760Z,14.57
2022-12-18T16:54:19.680Z,19.93
2022-12-18T16:56:52.980Z,16.13
2022-12-18T16:59:26.732Z,17.70
2022-12-18T17:01:59.803Z,20.80
2022-12-18T17:04:33.623Z,25.23
2022-12-18T17:07:06.554Z,16.93
2022-12-18T17:09:39.607Z,25.50
2022-12-18T17:12:13.173Z,21.33
2022-12-18T17:14:46.197Z,16.47
2022-12-18T17:17:22.355Z,17.87
2022-12-18T17:19:56.032Z,25.63
2022-12-18T17:22:29.031Z,20.00
2022-12-18T17:25:01.958Z,17.20
2022-12-18T17:27:35.038Z,15.40
2022-12-18T17:30:08.398Z,11.83
2022-12-18T17:32:41.423Z,21.23
2022-12-18T17:35:14.400Z,18.80
2022-12-18T17:37:48.686Z,17.97
2022-12-18T17:40:21.659Z,24.67
2022-12-18T17:42:54.675Z,19.87
2022-12-18T17:45:28.033Z,22.53
2022-12-18T17:48:00.983Z,23.43
2022-12-18T17:50:34.434Z,19.70
2022-12-18T17:53:07.428Z,36.33
2022-12-18T17:55:40.357Z,27.77
2022-12-18T17:58:13.445Z,26.03
2022-12-18T18:00:46.547Z,25.60
2022-12-18T18:03:19.671Z,18.23
2022-12-18T18:05:57.101Z,25.67
2022-12-18T18:08:31.874Z,24.27
2022-12-18T18:11:28.158Z,22.77
2022-12-18T18:14:05.053Z,28.90
2022-12-18T18:16:39.368Z,33.65
2022-12-18T18:19:13.809Z,23.57
2022-12-18T18:21:47.626Z,23.33
2022-12-18T18:24:25.786Z,16.90
2022-12-18T18:26:59.914Z,20.23
2022-12-18T18:29:33.157Z,23.93
2022-12-18T18:32:06.212Z,19.37
2022-12-18T18:34:42.428Z,22.20
2022-12-18T18:37:15.523Z,24.20
2022-12-18T18:39:48.489Z,20.60
2022-12-18T18:42:21.431Z,26.27
2022-12-18T18:44:54.408Z,23.00
2022-12-18T18:47:30.133Z,29.17
2022-12-18T18:50:03.145Z,22.70
2022-12-18T18:52:36.065Z,28.50
2022-12-18T18:55:13.692Z,16.03
2022-12-18T18:57:55.339Z,25.93
2022-12-18T19:00:28.266Z,21.43
2022-12-18T19:03:02.087Z,20.73
2022-12-18T19:05:35.295Z,24.43
2022-12-18T19:08:08.308Z,18.73
2022-12-18T19:10:41.752Z,19.53
2022-12-18T19:13:21.390Z,17.30
2022-12-18T19:16:03.660Z,19.80
2022-12-18T19:18:38.319Z,21.37
2022-12-18T19:21:11.935Z,21.40
2022-12-18T19:23:44.959Z,16.97
2022-12-18T19:26:27.301Z,21.43
2022-12-18T19:29:05.482Z,21.13
2022-12-18T19:31:38.584Z,25.33
2022-12-18T19:34:12.089Z,22.17
2022-12-18T19:36:45.041Z,30.67
2022-12-18T19:39:19.233Z,24.77
2022-12-18T19:41:52.512Z,25.30
2022-12-18T19:44:25.511Z,20.90
2022-12-18T19:46:58.477Z,20.80
2022-12-18T19:49:32.567Z,23.90
2022-12-18T19:52:05.787Z,23.07
2022-12-18T19:54:38.799Z,19.93
2022-12-18T19:57:12.378Z,19.97
2022-12-18T19:59:45.352Z,24.10
2022-12-18T20:02:21.509Z,24.83
2022-12-18T20:04:55.284Z,27.23
2022-12-18T20:07:28.233Z,30.07
2022-12-18T20:10:08.636Z,21.60
2022-12-18T20:12:42.186Z,22.43
2022-12-18T20:15:15.197Z,25.87
2022-12-18T20:17:48.212Z,24.57
2022-12-18T20:20:21.255Z,23.43
2022-12-18T20:22:54.766Z,17.17
2022-12-18T20:25:27.695Z,24.47
2022-12-18T20:28:00.636Z,23.97
2022-12-18T20:30:33.583Z,21.57
2022-12-18T20:33:06.536Z,20.57
2022-12-18T20:35:39.439Z,26.10
2022-12-18T20:38:12.377Z,21.93
2022-12-18T20:40:46.350Z,23.57
2022-12-18T20:43:19.244Z,23.07
2022-12-18T20:45:52.268Z,21.63
2022-12-18T20:48:26.724Z,20.00
2022-12-18T20:51:07.354Z,25.87
2022-12-18T20:53:40.962Z,16.73
2022-12-18T20:56:21.304Z,20.93
2022-12-18T20:58:57.008Z,22.80
2022-12-18T21:01:30.444Z,20.73
2022-12-18T21:04:03.384Z,29.93
2022-12-18T21:06:36.913Z,20.37
2022-12-18T21:09:09.811Z,25.03
2022-12-18T21:12:01.444Z,31.13
2022-12-18T21:14:34.916Z,26.27
2022-12-18T21:17:07.878Z,26.93
2022-12-18T21:19:40.879Z,21.23
2022-12-18T21:22:14.260Z,21.50
2022-12-18T21:24:47.257Z,24.47
2022-12-18T21:27:20.369Z,24.30
2022-12-18T21:29:53.368Z,22.77
2022-12-18T21:32:26.279Z,21.47
2022-12-18T21:35:04.793Z,32.33
2022-12-18T21:37:37.701Z,25.80
2022-12-18T21:40:10.981Z,26.37
2022-12-18T21:43:02.709Z,23.00
2022-12-18T21:45:36.160Z,22.73
2022-12-18T21:48:09.098Z,23.53
2022-12-18T21:50:41.971Z,21.87
2022-12-18T21:53:14.915Z,19.23
2022-12-18T21:55:47.841Z,23.53
2022-12-18T21:58:20.761Z,23.07
2022-12-18T22:00:53.721Z,28.20
2022-12-18T22:03:26.760Z,31.17
2022-12-18T22:06:08.964Z,28.17
2022-12-18T22:08:43.561Z,27.37
2022-12-18T22:11:16.953Z,26.03
2022-12-18T22:13:51.080Z,22.77
2022-12-18T22:16:24.030Z,23.80
2022-12-18T22:18:57.317Z,25.70
2022-12-18T22:21:31.848Z,23.80
2022-12-18T22:24:09.463Z,23.13
2022-12-18T22:26:42.925Z,22.37
2022-12-18T22:29:35.928Z,25.50
2022-12-18T22:32:10.450Z,26.40
2022-12-18T22:34:44.957Z,20.90
2022-12-18T22:37:17.830Z,27.70
2022-12-18T22:39:50.705Z,21.77
2022-12-18T22:42:23.601Z,24.30
2022-12-18T22:44:56.838Z,27.00
2022-12-18T22:47:30.685Z,22.93
2022-12-18T22:50:03.999Z,28.83
2022-12-18T22:52:36.918Z,27.77
2022-12-18T22:55:09.927Z,27.00
2022-12-18T22:57:45.043Z,23.83
2022-12-18T23:00:24.907Z,18.53
2022-12-18T23:03:00.968Z,19.40
2022-12-18T23:05:34.216Z,26.60
2022-12-18T23:08:07.119Z,23.00
2022-12-18T23:10:40.247Z,26.63
2022-12-18T23:13:13.219Z,19.67
2022-12-18T23:15:49.055Z,21.50
2022-12-18T23:18:22.485Z,25.03
2022-12-18T23:20:55.339Z,21.33
2022-12-18T23:23:29.595Z,24.93
2022-12-18T23:26:06.892Z,25.90
2022-12-18T23:28:40.479Z,25.90
2022-12-18T23:31:20.939Z,22.03
2022-12-18T23:33:54.819Z,26.33
2022-12-18T23:36:28.138Z,23.53
2022-12-18T23:39:02.474Z,26.23
2022-12-18T23:41:35.406Z,31.70
2022-12-18T23:44:08.373Z,24.90
2022-12-18T23:46:41.336Z,25.20
2022-12-18T23:49:14.320Z,32.80
2022-12-18T23:51:47.196Z,25.97
2022-12-18T23:54:22.705Z,21.40
2022-12-18T23:57:06.551Z,24.60
2022-12-18T23:59:39.488Z,20.63
